Time;durP1;ratioP1;P1;durP2;ratioP2;P2;SDS_P1;SDS_P2;PMS_P1;PMS_P2;Temp;Humidity;BMP_temperature;BMP_pressure;BME280_temperature;BME280_humidity;BME280_pressure;Samples;Min_cycle;Max_cycle;Signal;HPM_P1;HPM_P2
2021/10/29 00:01:00;;;;;;;9.97;9.07;;;;;21.90;100041.00;;;;2071229;28;20214;-53
2021/10/29 00:02:00;;;;;;;10.27;9.17;;;;;21.90;100036.00;;;;2071240;28;20223;-52
2021/10/29 00:03:04;;;;;;;9.90;9.00;;;;;21.90;100030.00;;;;2071281;28;20222;-52
2021/10/29 00:04:04;;;;;;;9.00;8.20;;;;;21.90;100033.00;;;;2070420;28;20206;-54
2021/10/29 00:05:05;;;;;;;9.97;8.97;;;;;21.90;100040.00;;;;2071322;28;20296;-55
2021/10/29 00:06:05;;;;;;;9.23;8.33;;;;;21.90;100037.00;;;;2071533;28;20300;-53
2021/10/29 00:07:07;;;;;;;9.33;8.27;;;;;21.80;100028.00;;;;2071431;28;21110;-53
2021/10/29 00:08:07;;;;;;;10.35;8.30;;;;;21.80;100032.00;;;;2071375;28;20214;-54
2021/10/29 00:09:08;;;;;;;10.13;9.23;;;;;21.80;100034.00;;;;2070051;28;20263;-53
2021/10/29 00:10:08;;;;;;;9.30;8.40;;;;;21.80;100034.00;;;;2071413;28;20297;-53
2021/10/29 00:11:09;;;;;;;9.17;8.33;;;;;21.80;100031.00;;;;2071129;28;20210;-52
2021/10/29 00:12:10;;;;;;;9.10;8.27;;;;;21.80;100034.00;;;;2071316;28;20760;-53
2021/10/29 00:13:10;;;;;;;10.00;9.00;;;;;21.80;100036.00;;;;2079215;28;20205;-53
2021/10/29 00:14:10;;;;;;;9.40;8.57;;;;;21.80;100042.00;;;;2079232;28;20343;-53
2021/10/29 00:15:11;;;;;;;8.30;7.60;;;;;21.80;100037.00;;;;2075375;28;20710;-53
2021/10/29 00:16:11;;;;;;;8.73;7.90;;;;;21.80;100032.00;;;;2074699;28;20746;-54
2021/10/29 00:17:11;;;;;;;9.57;8.60;;;;;21.80;100041.00;;;;2072921;28;20718;-53
2021/10/29 00:18:12;;;;;;;8.57;7.77;;;;;21.80;100039.00;;;;2071292;28;20700;-54
2021/10/29 00:19:12;;;;;;;8.47;7.67;;;;;21.80;100047.00;;;;2073438;28;20220;-53
2021/10/29 00:20:13;;;;;;;8.00;7.20;;;;;21.80;100043.00;;;;2079299;28;20213;-54
2021/10/29 00:21:13;;;;;;;8.63;7.83;;;;;21.70;100045.00;;;;2079205;28;20206;-52
2021/10/29 00:22:13;;;;;;;8.30;7.60;;;;;21.70;100044.00;;;;2079306;28;20213;-52
2021/10/29 00:23:14;;;;;;;7.63;7.00;;;;;21.70;100049.00;;;;2079498;28;20263;-52
2021/10/29 00:24:14;;;;;;;8.10;7.30;;;;;21.80;100044.00;;;;2079327;28;20564;-54
2021/10/29 00:25:14;;;;;;;8.47;7.67;;;;;21.80;100040.00;;;;2079383;28;20296;-53
2021/10/29 00:26:15;;;;;;;8.43;7.63;;;;;21.80;100051.00;;;;2079462;28;20210;-53
2021/10/29 00:27:15;;;;;;;8.70;7.00;;;;;21.80;100044.00;;;;2079258;28;20217;-53
2021/10/29 00:28:15;;;;;;;8.30;7.53;;;;;21.80;100046.00;;;;2079334;28;20232;-53
2021/10/29 00:29:16;;;;;;;8.13;7.27;;;;;21.80;100048.00;;;;2078059;28;20280;-53
2021/10/29 00:30:17;;;;;;;7.60;6.87;;;;;21.80;100047.00;;;;2079465;28;20641;-55
2021/10/29 00:31:17;;;;;;;8.00;7.30;;;;;21.80;100048.00;;;;2078940;28;20456;-54
2021/10/29 00:32:17;;;;;;;7.77;7.07;;;;;21.80;100042.00;;;;2079060;28;20220;-55
2021/10/29 00:33:18;;;;;;;7.97;7.27;;;;;21.70;100046.00;;;;2079220;28;20221;-54
2021/10/29 00:34:19;;;;;;;7.80;7.10;;;;;21.80;100038.00;;;;2079311;28;20717;-53
2021/10/29 00:35:19;;;;;;;6.70;6.10;;;;;21.80;100044.00;;;;2079318;28;20233;-54
2021/10/29 00:36:20;;;;;;;7.37;6.67;;;;;21.70;100047.00;;;;2079314;28;20222;-52
2021/10/29 00:37:20;;;;;;;7.77;6.70;;;;;21.70;100038.00;;;;2079054;28;20449;-52
2021/10/29 00:38:20;;;;;;;7.60;7.00;;;;;21.80;100049.00;;;;2079233;28;20214;-54
2021/10/29 00:39:21;;;;;;;8.30;7.00;;;;;21.80;100048.00;;;;2078031;28;20300;-54
2021/10/29 00:40:21;;;;;;;7.07;6.47;;;;;21.80;100051.00;;;;2079395;28;20271;-53
2021/10/29 00:41:22;;;;;;;7.50;6.80;;;;;21.80;100040.00;;;;2078437;28;20225;-52
2021/10/29 00:42:22;;;;;;;7.37;6.67;;;;;21.80;100042.00;;;;2079064;28;20217;-52
2021/10/29 00:43:22;;;;;;;6.73;6.23;;;;;21.70;100043.00;;;;2079115;28;20209;-53
2021/10/29 00:44:24;;;;;;;7.10;6.50;;;;;21.70;100046.00;;;;2078875;28;20997;-54
2021/10/29 00:45:24;;;;;;;7.20;6.60;;;;;21.70;100048.00;;;;2074860;28;20253;-53
2021/10/29 00:46:24;;;;;;;7.00;6.30;;;;;21.70;100043.00;;;;2074117;28;20213;-55
2021/10/29 00:47:25;;;;;;;6.40;5.80;;;;;21.70;100041.00;;;;2075445;28;20217;-54
2021/10/29 00:48:25;;;;;;;6.67;6.07;;;;;21.70;100051.00;;;;2079085;28;20757;-54
2021/10/29 00:49:25;;;;;;;6.30;5.70;;;;;21.70;100040.00;;;;2078044;28;20672;-52
2021/10/29 00:50:26;;;;;;;7.00;6.40;;;;;21.70;100045.00;;;;2079281;28;20223;-52
2021/10/29 00:51:26;;;;;;;8.17;6.10;;;;;21.70;100048.00;;;;2078890;28;20643;-52
2021/10/29 00:52:26;;;;;;;6.70;6.10;;;;;21.70;100040.00;;;;2078329;28;20225;-55
2021/10/29 00:53:27;;;;;;;6.17;5.67;;;;;21.70;100041.00;;;;2079110;28;20221;-54
2021/10/29 00:54:28;;;;;;;6.10;5.60;;;;;21.80;100030.00;;;;2078574;28;20272;-53
2021/10/29 00:55:28;;;;;;;6.57;5.60;;;;;21.70;100043.00;;;;2070276;28;20225;-54
2021/10/29 00:56:29;;;;;;;6.27;5.70;;;;;21.70;100047.00;;;;2078582;28;20610;-53
2021/10/29 00:57:29;;;;;;;7.07;6.43;;;;;21.70;100037.00;;;;2086405;28;20236;-53
2021/10/29 00:58:29;;;;;;;7.00;6.10;;;;;21.70;100038.00;;;;2078739;28;20518;-52
2021/10/29 00:59:30;;;;;;;6.40;5.80;;;;;21.70;100046.00;;;;2077864;28;20705;-54
2021/10/29 01:00:30;;;;;;;5.90;5.30;;;;;21.80;100043.00;;;;2079081;28;20221;-54
2021/10/29 01:01:31;;;;;;;6.03;5.43;;;;;21.80;100041.00;;;;2072162;28;20260;-52
2021/10/29 01:02:31;;;;;;;5.77;5.27;;;;;21.80;100044.00;;;;2074160;28;20221;-54
2021/10/29 01:03:31;;;;;;;6.20;5.70;;;;;21.70;100054.00;;;;2071709;28;21083;-53
2021/10/29 01:04:32;;;;;;;6.93;6.27;;;;;21.70;100043.00;;;;2070903;28;20229;-52
2021/10/29 01:05:32;;;;;;;6.40;5.77;;;;;21.70;100043.00;;;;2071000;28;20226;-53
2021/10/29 01:06:33;;;;;;;6.03;5.53;;;;;21.70;100049.00;;;;2070905;28;20210;-53
2021/10/29 01:07:33;;;;;;;5.80;5.30;;;;;21.70;100050.00;;;;2070249;28;20218;-54
2021/10/29 01:08:35;;;;;;;5.47;5.03;;;;;21.70;100044.00;;;;2070301;28;20220;-53
2021/10/29 01:09:35;;;;;;;5.80;5.30;;;;;21.70;100052.00;;;;2069465;28;20218;-52
2021/10/29 01:10:36;;;;;;;5.77;5.27;;;;;21.70;100048.00;;;;2070602;28;20738;-53
2021/10/29 01:11:38;;;;;;;5.68;5.18;;;;;21.70;100057.00;;;;2070634;28;20221;-54
2021/10/29 01:12:38;;;;;;;5.63;5.13;;;;;21.70;100051.00;;;;2074949;28;20221;-51
2021/10/29 01:13:42;;;;;;;6.07;5.57;;;;;21.70;100046.00;;;;2079071;28;20728;-53
2021/10/29 01:14:42;;;;;;;5.78;5.28;;;;;21.70;100049.00;;;;2076237;28;20764;-53
2021/10/29 01:15:43;;;;;;;5.80;5.30;;;;;21.70;100046.00;;;;2072921;28;20328;-53
2021/10/29 01:16:43;;;;;;;5.47;5.07;;;;;21.70;100050.00;;;;2073662;28;20262;-53
2021/10/29 01:17:44;;;;;;;5.83;5.33;;;;;21.70;100042.00;;;;2070861;28;20213;-54
2021/10/29 01:18:44;;;;;;;5.70;5.20;;;;;21.70;100044.00;;;;2069855;28;20582;-56
2021/10/29 01:19:45;;;;;;;5.30;4.80;;;;;21.70;100039.00;;;;2070260;28;20221;-53
2021/10/29 01:20:45;;;;;;;5.40;4.90;;;;;21.70;100039.00;;;;2061913;28;20766;-52
2021/10/29 01:21:45;;;;;;;5.40;5.00;;;;;21.70;100036.00;;;;2061858;28;20233;-52
2021/10/29 01:22:46;;;;;;;5.00;4.60;;;;;21.70;100036.00;;;;2070789;28;20221;-52
2021/10/29 01:23:47;;;;;;;5.60;5.15;;;;;21.70;100039.00;;;;2070804;28;20210;-54
2021/10/29 01:24:47;;;;;;;5.30;4.90;;;;;21.70;100045.00;;;;2073188;28;20835;-53
2021/10/29 01:25:48;;;;;;;5.87;4.90;;;;;21.70;100037.00;;;;2078965;28;20389;-53
2021/10/29 01:26:48;;;;;;;5.70;5.20;;;;;21.70;100052.00;;;;2078836;28;20202;-54
2021/10/29 01:27:48;;;;;;;5.13;4.73;;;;;21.70;100049.00;;;;2078695;28;20234;-53
2021/10/29 01:28:49;;;;;;;5.17;4.67;;;;;21.70;100040.00;;;;2077759;28;20209;-53
2021/10/29 01:29:50;;;;;;;5.50;5.00;;;;;21.70;100035.00;;;;2078673;28;20225;-52
2021/10/29 01:30:51;;;;;;;5.35;4.85;;;;;21.70;100036.00;;;;2079102;28;20221;-54
2021/10/29 01:31:51;;;;;;;4.50;4.20;;;;;21.70;100037.00;;;;2076763;28;20300;-52
2021/10/29 01:32:51;;;;;;;5.33;4.83;;;;;21.70;100043.00;;;;2069867;28;20206;-53
2021/10/29 01:33:52;;;;;;;5.37;4.93;;;;;21.70;100040.00;;;;2070296;28;20264;-52
2021/10/29 01:34:53;;;;;;;5.88;5.30;;;;;21.70;100041.00;;;;2070052;28;20582;-51
2021/10/29 01:35:54;;;;;;;4.87;4.47;;;;;21.60;100035.00;;;;2070928;28;20221;-52
2021/10/29 01:36:55;;;;;;;5.03;4.63;;;;;21.70;100033.00;;;;2069845;28;20632;-52
2021/10/29 01:37:55;;;;;;;5.13;4.63;;;;;21.70;100028.00;;;;2070913;28;20210;-52
2021/10/29 01:38:55;;;;;;;4.50;4.10;;;;;21.70;100033.00;;;;2069811;28;20202;-52
2021/10/29 01:39:56;;;;;;;4.80;4.40;;;;;21.70;100024.00;;;;2070927;28;20206;-52
2021/10/29 01:40:56;;;;;;;4.90;4.50;;;;;21.70;100030.00;;;;2070981;28;20206;-52
2021/10/29 01:41:56;;;;;;;5.40;4.90;;;;;21.60;100016.00;;;;2061623;28;20570;-53
2021/10/29 01:42:57;;;;;;;4.70;4.30;;;;;21.70;100022.00;;;;2077852;28;20233;-53
2021/10/29 01:43:57;;;;;;;5.40;5.00;;;;;21.60;100027.00;;;;2077640;28;20213;-52
2021/10/29 01:44:58;;;;;;;4.60;4.20;;;;;21.70;99992.00;;;;2074302;28;20305;-54
2021/10/29 01:45:58;;;;;;;4.90;4.50;;;;;21.70;100030.00;;;;2073793;28;20737;-53
2021/10/29 01:46:58;;;;;;;4.87;4.47;;;;;21.70;100015.00;;;;2073353;28;20206;-52
2021/10/29 01:47:59;;;;;;;5.10;4.70;;;;;21.60;100014.00;;;;2070704;28;20245;-54
2021/10/29 01:49:00;;;;;;;5.17;4.73;;;;;21.60;100018.00;;;;2071555;28;20217;-51
2021/10/29 01:50:00;;;;;;;4.90;4.37;;;;;21.60;100014.00;;;;2079033;28;20304;-53
2021/10/29 01:51:01;;;;;;;5.07;4.57;;;;;21.60;100015.00;;;;2072181;28;20218;-51
2021/10/29 01:52:01;;;;;;;4.67;4.27;;;;;21.60;100006.00;;;;2070161;28;20305;-53
2021/10/29 01:53:01;;;;;;;5.13;4.70;;;;;21.60;100009.00;;;;2070018;28;20272;-52
2021/10/29 01:54:02;;;;;;;5.20;4.80;;;;;21.60;100010.00;;;;2070419;28;20210;-53
2021/10/29 01:55:04;;;;;;;5.80;5.00;;;;;21.60;100016.00;;;;2070381;28;20216;-52
2021/10/29 01:56:04;;;;;;;4.20;3.88;;;;;21.70;100005.00;;;;2070268;28;20218;-51
2021/10/29 01:57:05;;;;;;;5.10;4.70;;;;;21.60;100004.00;;;;2070065;28;20729;-53
2021/10/29 01:58:06;;;;;;;5.00;4.60;;;;;21.60;100000.00;;;;2070321;28;20476;-54
2021/10/29 01:59:06;;;;;;;5.20;4.70;;;;;21.60;100006.00;;;;2068926;28;20316;-54
2021/10/29 02:00:07;;;;;;;4.57;4.20;;;;;21.60;100002.00;;;;2073648;28;20356;-53
2021/10/29 02:01:07;;;;;;;4.30;4.00;;;;;21.60;100003.00;;;;2078561;28;20221;-54
2021/10/29 02:02:08;;;;;;;5.10;4.70;;;;;21.70;99999.00;;;;2078434;28;20460;-53
2021/10/29 02:03:08;;;;;;;4.77;4.37;;;;;21.60;100002.00;;;;2078575;28;20304;-54
2021/10/29 02:04:08;;;;;;;4.80;4.40;;;;;21.60;100001.00;;;;2078765;28;20214;-53
2021/10/29 02:05:09;;;;;;;5.23;4.73;;;;;21.60;99995.00;;;;2073137;28;20218;-52
2021/10/29 02:06:09;;;;;;;4.77;4.37;;;;;21.60;99999.00;;;;2070703;28;20214;-54
2021/10/29 02:07:10;;;;;;;4.90;4.50;;;;;21.60;99994.00;;;;2073319;28;20210;-53
2021/10/29 02:08:10;;;;;;;4.43;4.03;;;;;21.60;99998.00;;;;2078430;28;20289;-53
2021/10/29 02:09:11;;;;;;;4.30;4.00;;;;;21.60;99993.00;;;;2077638;28;20614;-52
2021/10/29 02:10:11;;;;;;;4.70;4.30;;;;;21.60;99988.00;;;;2070986;28;20320;-52
2021/10/29 02:11:12;;;;;;;4.50;4.10;;;;;21.60;99983.00;;;;2075071;28;20217;-54
2021/10/29 02:12:12;;;;;;;4.70;4.33;;;;;21.60;99986.00;;;;2078786;28;20309;-51
2021/10/29 02:13:12;;;;;;;4.80;4.40;;;;;21.60;99983.00;;;;2078492;28;20221;-52
2021/10/29 02:14:13;;;;;;;4.77;4.30;;;;;21.60;99979.00;;;;2078090;28;20267;-52
2021/10/29 02:15:13;;;;;;;4.37;3.97;;;;;21.60;99985.00;;;;2073734;28;20252;-53
2021/10/29 02:16:13;;;;;;;5.03;4.63;;;;;21.60;99983.00;;;;2073473;28;20227;-51
2021/10/29 02:17:14;;;;;;;4.20;3.90;;;;;21.60;99979.00;;;;2071874;28;20225;-53
2021/10/29 02:18:14;;;;;;;4.07;3.77;;;;;21.60;99973.00;;;;2070628;28;20321;-54
2021/10/29 02:19:14;;;;;;;4.20;3.90;;;;;21.60;99974.00;;;;2068472;28;20217;-52
2021/10/29 02:20:15;;;;;;;4.13;3.77;;;;;21.60;99977.00;;;;2078995;28;20217;-52
2021/10/29 02:21:16;;;;;;;4.20;3.80;;;;;21.60;99974.00;;;;2078400;28;20275;-54
2021/10/29 02:22:16;;;;;;;4.67;4.27;;;;;21.60;99970.00;;;;2078487;28;20476;-53
2021/10/29 02:23:16;;;;;;;3.90;3.60;;;;;21.60;99969.00;;;;2072723;28;20221;-53
2021/10/29 02:24:17;;;;;;;4.20;3.90;;;;;21.60;99979.00;;;;2070697;28;20305;-53
2021/10/29 02:25:17;;;;;;;5.00;4.57;;;;;21.60;99966.00;;;;2070705;28;20298;-52
2021/10/29 02:26:18;;;;;;;4.07;3.77;;;;;21.50;99961.00;;;;2070725;28;20218;-54
2021/10/29 02:27:18;;;;;;;4.40;4.00;;;;;21.50;99969.00;;;;2069894;28;20275;-54
2021/10/29 02:28:19;;;;;;;4.80;4.40;;;;;21.50;99968.00;;;;2070298;28;20221;-54
2021/10/29 02:29:20;;;;;;;3.90;3.50;;;;;21.60;99966.00;;;;2069478;28;20218;-52
2021/10/29 02:30:20;;;;;;;3.83;3.53;;;;;21.50;99966.00;;;;2075823;28;20636;-54
2021/10/29 02:31:20;;;;;;;5.10;4.30;;;;;21.60;99965.00;;;;2073088;28;20360;-52
2021/10/29 02:32:21;;;;;;;4.00;3.70;;;;;21.60;99958.00;;;;2070247;28;20229;-53
2021/10/29 02:33:21;;;;;;;4.20;3.90;;;;;21.60;99956.00;;;;2070740;28;20699;-52
2021/10/29 02:34:21;;;;;;;3.90;3.60;;;;;21.50;99954.00;;;;2070623;28;20336;-52
2021/10/29 02:35:22;;;;;;;4.60;4.20;;;;;21.60;99953.00;;;;2070498;28;20218;-52
2021/10/29 02:36:22;;;;;;;4.90;4.40;;;;;21.60;99957.00;;;;2070633;28;20226;-53
2021/10/29 02:37:23;;;;;;;4.20;3.90;;;;;21.50;99960.00;;;;2070083;28;20229;-52
2021/10/29 02:38:23;;;;;;;4.37;3.93;;;;;21.50;99955.00;;;;2070562;28;20305;-52
2021/10/29 02:39:24;;;;;;;4.47;4.07;;;;;21.50;99959.00;;;;2069663;28;21093;-52
2021/10/29 02:40:24;;;;;;;4.30;3.90;;;;;21.60;99959.00;;;;2070789;28;20218;-52
2021/10/29 02:41:24;;;;;;;4.63;4.23;;;;;21.60;99948.00;;;;2070611;28;20221;-54
2021/10/29 02:42:25;;;;;;;4.40;4.00;;;;;21.50;99966.00;;;;2070203;28;20222;-53
2021/10/29 02:43:26;;;;;;;4.28;3.97;;;;;21.50;99952.00;;;;2068818;28;20318;-52
2021/10/29 02:44:26;;;;;;;4.43;3.40;;;;;21.50;99958.00;;;;2073811;28;20575;-52
2021/10/29 02:45:27;;;;;;;4.50;4.10;;;;;21.50;99952.00;;;;2061729;28;20563;-55
2021/10/29 02:46:27;;;;;;;4.50;4.10;;;;;21.50;99951.00;;;;2070280;28;20313;-54
2021/10/29 02:47:27;;;;;;;3.83;3.53;;;;;21.50;99952.00;;;;2065386;28;20638;-55
2021/10/29 02:48:28;;;;;;;5.17;4.07;;;;;21.50;99949.00;;;;2075352;28;20214;-53
2021/10/29 02:49:28;;;;;;;4.27;3.90;;;;;21.50;99942.00;;;;2077152;28;20217;-53
2021/10/29 02:50:29;;;;;;;4.80;4.10;;;;;21.50;99939.00;;;;2077342;28;20611;-53
2021/10/29 02:51:30;;;;;;;4.37;3.97;;;;;21.50;99939.00;;;;2077449;28;20205;-54
2021/10/29 02:52:30;;;;;;;4.00;3.70;;;;;21.50;99940.00;;;;2077709;28;20217;-52
2021/10/29 02:53:31;;;;;;;3.93;3.63;;;;;21.50;99945.00;;;;2078040;28;20778;-53
2021/10/29 02:54:31;;;;;;;4.10;3.70;;;;;21.50;99946.00;;;;2077733;28;20216;-54
2021/10/29 02:55:31;;;;;;;4.00;3.70;;;;;21.50;99942.00;;;;2077962;28;20209;-52
2021/10/29 02:56:32;;;;;;;4.10;3.80;;;;;21.50;99938.00;;;;2072928;28;20288;-53
2021/10/29 02:57:32;;;;;;;3.80;3.50;;;;;21.50;99943.00;;;;2070269;28;20206;-53
2021/10/29 02:58:33;;;;;;;4.37;4.00;;;;;21.50;99938.00;;;;2069277;28;20210;-53
2021/10/29 02:59:34;;;;;;;4.33;3.93;;;;;21.50;99939.00;;;;2072508;28;20706;-54
2021/10/29 03:00:34;;;;;;;3.77;3.47;;;;;21.50;99940.00;;;;2075245;28;20269;-52
2021/10/29 03:01:34;;;;;;;3.83;3.53;;;;;21.50;99939.00;;;;2070005;28;20465;-52
2021/10/29 03:02:35;;;;;;;4.80;4.40;;;;;21.50;99936.00;;;;2070524;28;20277;-52
2021/10/29 03:03:35;;;;;;;4.07;3.70;;;;;21.50;99942.00;;;;2078561;28;20589;-53
2021/10/29 03:04:35;;;;;;;4.03;3.63;;;;;21.50;99936.00;;;;2078676;28;20324;-53
2021/10/29 03:05:37;;;;;;;5.67;4.20;;;;;21.50;99932.00;;;;2078312;28;20251;-54
2021/10/29 03:06:38;;;;;;;4.00;3.70;;;;;21.50;99940.00;;;;2078754;28;20228;-54
2021/10/29 03:07:38;;;;;;;4.33;3.93;;;;;21.50;99927.00;;;;2078624;28;20584;-53
2021/10/29 03:08:39;;;;;;;4.07;3.77;;;;;21.50;99938.00;;;;2078557;28;20209;-52
2021/10/29 03:09:39;;;;;;;4.33;3.93;;;;;21.50;99932.00;;;;2077823;28;20750;-52
2021/10/29 03:10:39;;;;;;;4.10;3.70;;;;;21.50;99933.00;;;;2078246;28;20209;-52
2021/10/29 03:11:40;;;;;;;4.33;3.90;;;;;21.50;99931.00;;;;2078493;28;20202;-53
2021/10/29 03:12:40;;;;;;;4.20;3.90;;;;;21.50;99931.00;;;;2078179;28;20693;-53
2021/10/29 03:13:41;;;;;;;3.87;3.40;;;;;21.50;99931.00;;;;2078278;28;20209;-54
2021/10/29 03:14:41;;;;;;;4.10;3.70;;;;;21.50;99928.00;;;;2072866;28;20733;-52
2021/10/29 03:15:42;;;;;;;4.20;3.73;;;;;21.50;99929.00;;;;2070470;28;20221;-52
2021/10/29 03:16:43;;;;;;;3.97;3.67;;;;;21.50;99930.00;;;;2070374;28;20211;-52
2021/10/29 03:17:43;;;;;;;5.57;3.90;;;;;21.50;99925.00;;;;2070430;28;20222;-52
2021/10/29 03:18:43;;;;;;;3.97;3.67;;;;;21.50;99926.00;;;;2069581;28;20461;-52
2021/10/29 03:19:44;;;;;;;3.73;3.43;;;;;21.50;99919.00;;;;2070120;28;20210;-53
2021/10/29 03:20:45;;;;;;;4.60;4.20;;;;;21.50;99919.00;;;;2071254;28;20206;-53
2021/10/29 03:21:45;;;;;;;4.80;4.20;;;;;21.50;99912.00;;;;2071468;28;20214;-53
2021/10/29 03:22:45;;;;;;;4.50;4.10;;;;;21.50;99915.00;;;;2071822;28;20214;-52
2021/10/29 03:23:46;;;;;;;4.47;4.17;;;;;21.50;99913.00;;;;2078086;28;20217;-53
2021/10/29 03:24:46;;;;;;;4.00;3.70;;;;;21.50;99908.00;;;;2080024;28;20209;-53
2021/10/29 03:25:46;;;;;;;4.00;3.67;;;;;21.50;99916.00;;;;2078477;28;20240;-53
2021/10/29 03:26:47;;;;;;;4.17;3.87;;;;;21.50;99908.00;;;;2079939;28;20206;-53
2021/10/29 03:27:47;;;;;;;3.90;3.60;;;;;21.50;99915.00;;;;2072092;28;20215;-53
2021/10/29 03:28:48;;;;;;;4.03;3.73;;;;;21.50;99902.00;;;;2072147;28;20214;-54
2021/10/29 03:29:48;;;;;;;4.70;4.30;;;;;21.50;99908.00;;;;2072576;28;20958;-52
2021/10/29 03:30:49;;;;;;;3.80;3.50;;;;;21.40;99902.00;;;;2072453;28;20260;-53
2021/10/29 03:31:49;;;;;;;4.70;3.90;;;;;21.50;99909.00;;;;2071901;28;20247;-52
2021/10/29 03:32:50;;;;;;;4.03;3.73;;;;;21.50;99910.00;;;;2071501;28;20217;-52
2021/10/29 03:33:50;;;;;;;4.27;3.80;;;;;21.50;99910.00;;;;2071867;28;20300;-52
2021/10/29 03:34:51;;;;;;;4.20;3.80;;;;;21.50;99914.00;;;;2071622;28;20218;-54
2021/10/29 03:35:52;;;;;;;4.20;3.80;;;;;21.50;99900.00;;;;2071666;28;20665;-52
2021/10/29 03:36:52;;;;;;;4.30;3.50;;;;;21.50;99900.00;;;;2079905;28;20217;-52
2021/10/29 03:39:24;;;;;;;4.25;3.40;;;;;21.50;99898.00;;;;2078786;28;20213;-52
2021/10/29 03:40:40;;;;;;;6.00;3.83;;;;;21.50;99903.00;;;;2071573;28;20225;-53
2021/10/29 03:41:48;;;;;;;3.80;3.40;;;;;21.50;99903.00;;;;2076360;28;21176;-52
2021/10/29 03:44:13;;;;;;;4.55;3.47;;;;;21.50;99900.00;;;;2079603;28;20213;-52
2021/10/29 03:45:15;;;;;;;3.70;3.40;;;;;21.50;99894.00;;;;2079653;28;20220;-52
2021/10/29 03:46:20;;;;;;;4.57;4.10;;;;;21.40;99900.00;;;;2078826;28;20275;-53
2021/10/29 03:47:21;;;;;;;11.93;4.10;;;;;21.40;99892.00;;;;2078352;28;20600;-53
2021/10/29 03:48:54;;;;;;;3.97;3.57;;;;;21.40;99899.00;;;;2079339;28;20296;-53
2021/10/29 03:49:49;;;;;;;8.50;4.13;;;;;21.50;99897.00;;;;2078354;28;20247;-52
2021/10/29 03:51:02;;;;;;;7.03;3.70;;;;;21.50;99890.00;;;;2079348;28;20214;-54
2021/10/29 03:52:17;;;;;;;7.55;3.83;;;;;21.50;99891.00;;;;2078952;28;20270;-52
2021/10/29 03:53:56;;;;;;;3.90;3.60;;;;;21.50;99884.00;;;;2072480;28;20706;-53
2021/10/29 03:54:50;;;;;;;4.25;3.40;;;;;21.50;99893.00;;;;2073336;28;20206;-53
2021/10/29 03:55:53;;;;;;;4.53;3.33;;;;;21.60;99894.00;;;;2071086;28;20210;-51
2021/10/29 03:57:10;;;;;;;4.03;3.63;;;;;21.60;99898.00;;;;2075671;28;20208;-52
2021/10/29 03:58:10;;;;;;;4.07;3.50;;;;;21.60;99887.00;;;;2078892;28;20216;-52
2021/10/29 03:59:10;;;;;;;5.30;3.80;;;;;21.60;99890.00;;;;2070994;28;20556;-53
2021/10/29 04:00:11;;;;;;;3.63;3.33;;;;;21.60;99896.00;;;;2071394;28;20217;-52
2021/10/29 04:01:12;;;;;;;5.00;3.90;;;;;21.60;99898.00;;;;2071236;28;20214;-52
2021/10/29 04:02:12;;;;;;;4.40;3.43;;;;;21.60;99897.00;;;;2073525;28;20300;-52
2021/10/29 04:03:14;;;;;;;3.80;3.33;;;;;21.60;99893.00;;;;2070801;28;20221;-52
2021/10/29 04:04:14;;;;;;;4.78;3.67;;;;;21.60;99899.00;;;;2070591;28;20225;-53
2021/10/29 04:05:14;;;;;;;4.87;3.83;;;;;21.60;99884.00;;;;2073594;28;20581;-52
2021/10/29 04:06:15;;;;;;;3.60;3.30;;;;;21.60;99889.00;;;;2075810;28;20210;-52
2021/10/29 04:07:15;;;;;;;4.13;3.73;;;;;21.60;99898.00;;;;2071094;28;20293;-52
2021/10/29 04:08:15;;;;;;;12.20;4.10;;;;;21.60;99888.00;;;;2070894;28;20276;-54
2021/10/29 04:09:16;;;;;;;6.70;3.67;;;;;21.60;99893.00;;;;2069952;28;20305;-52
2021/10/29 04:10:16;;;;;;;5.63;4.00;;;;;21.50;99899.00;;;;2070768;28;20237;-54
2021/10/29 04:11:22;;;;;;;7.03;3.50;;;;;21.50;99898.00;;;;2070698;28;20321;-54
2021/10/29 04:12:23;;;;;;;4.85;3.85;;;;;21.50;99886.00;;;;2070910;28;20230;-54
2021/10/29 04:13:26;;;;;;;6.13;3.47;;;;;21.50;99898.00;;;;2070698;28;20222;-53
2021/10/29 04:14:28;;;;;;;4.00;3.50;;;;;21.50;99888.00;;;;2070944;28;20582;-53
2021/10/29 04:15:29;;;;;;;6.13;4.50;;;;;21.50;99893.00;;;;2070728;28;20237;-52
2021/10/29 04:16:31;;;;;;;3.70;3.30;;;;;21.40;99887.00;;;;2070930;28;20222;-51
2021/10/29 04:17:32;;;;;;;4.25;3.88;;;;;21.50;99894.00;;;;2070853;28;20213;-54
2021/10/29 04:18:33;;;;;;;5.43;4.00;;;;;21.50;99896.00;;;;2071026;28;20750;-54
2021/10/29 04:19:34;;;;;;;6.63;4.10;;;;;21.50;99900.00;;;;2070191;28;20238;-54
2021/10/29 04:20:34;;;;;;;4.77;3.63;;;;;21.40;99893.00;;;;2071007;28;20706;-54
2021/10/29 04:21:35;;;;;;;4.07;3.67;;;;;21.50;99889.00;;;;2071285;28;20587;-53
2021/10/29 04:22:36;;;;;;;5.13;3.40;;;;;21.40;99889.00;;;;2071200;28;20349;-53
2021/10/29 04:23:36;;;;;;;5.27;3.67;;;;;21.40;99895.00;;;;2070424;28;20782;-53
2021/10/29 04:24:37;;;;;;;4.07;3.67;;;;;21.40;99898.00;;;;2070972;28;20225;-54
2021/10/29 04:25:38;;;;;;;5.10;3.50;;;;;21.40;99891.00;;;;2071316;28;20225;-53
2021/10/29 04:26:38;;;;;;;3.60;3.30;;;;;21.40;99894.00;;;;2071083;28;20551;-54
2021/10/29 04:27:48;;;;;;;4.00;3.60;;;;;21.40;99898.00;;;;2071091;28;20214;-53
2021/10/29 04:28:54;;;;;;;3.63;3.33;;;;;21.40;99892.00;;;;2070736;28;20583;-55
2021/10/29 04:29:54;;;;;;;4.88;3.35;;;;;21.40;99894.00;;;;2071979;28;20210;-52
2021/10/29 04:30:55;;;;;;;7.13;3.67;;;;;21.40;99890.00;;;;2073055;28;20213;-54
2021/10/29 04:31:55;;;;;;;4.50;3.50;;;;;21.40;99896.00;;;;2076171;28;20195;-54
2021/10/29 04:32:56;;;;;;;4.27;3.57;;;;;21.40;99887.00;;;;2073516;28;20456;-53
2021/10/29 04:33:57;;;;;;;3.90;3.40;;;;;21.50;99888.00;;;;2073309;28;20421;-52
2021/10/29 04:34:57;;;;;;;4.50;4.10;;;;;21.50;99892.00;;;;2069509;28;20289;-54
2021/10/29 04:35:58;;;;;;;3.80;3.50;;;;;21.50;99887.00;;;;2069493;28;20385;-53
2021/10/29 04:36:58;;;;;;;3.93;3.37;;;;;21.40;99885.00;;;;2069970;28;20214;-53
2021/10/29 04:37:59;;;;;;;3.93;3.63;;;;;21.40;99881.00;;;;2070042;28;20284;-53
2021/10/29 04:38:59;;;;;;;4.07;3.67;;;;;21.40;99885.00;;;;2069707;28;20695;-54
2021/10/29 04:39:59;;;;;;;5.17;3.87;;;;;21.50;99889.00;;;;2069954;28;20718;-54
2021/10/29 04:41:00;;;;;;;4.10;3.70;;;;;21.50;99881.00;;;;2070081;28;20245;-52
2021/10/29 04:42:00;;;;;;;4.53;3.90;;;;;21.40;99879.00;;;;2070597;28;20225;-54
2021/10/29 04:43:04;;;;;;;6.77;5.17;;;;;21.40;99879.00;;;;2071138;28;20218;-55
2021/10/29 04:44:04;;;;;;;7.95;6.47;;;;;21.40;99884.00;;;;2070545;28;20930;-54
2021/10/29 04:45:05;;;;;;;9.23;8.23;;;;;21.40;99884.00;;;;2069740;28;20280;-54
2021/10/29 04:46:06;;;;;;;15.23;13.13;;;;;21.40;99878.00;;;;2070335;28;20317;-53
2021/10/29 04:47:07;;;;;;;17.70;14.63;;;;;21.40;99889.00;;;;2070139;28;20276;-53
2021/10/29 04:48:07;;;;;;;20.83;18.40;;;;;21.40;99878.00;;;;2069190;28;20218;-55
2021/10/29 04:49:08;;;;;;;21.47;18.10;;;;;21.40;99877.00;;;;2069949;28;20305;-55
2021/10/29 04:50:08;;;;;;;27.90;22.17;;;;;21.40;99876.00;;;;2074169;28;20213;-55
2021/10/29 04:51:08;;;;;;;30.03;24.30;;;;;21.40;99873.00;;;;2078675;28;20664;-54
2021/10/29 04:52:09;;;;;;;31.63;25.57;;;;;21.40;99876.00;;;;2078849;28;20217;-54
2021/10/29 04:53:10;;;;;;;35.17;28.10;;;;;21.50;99876.00;;;;2078708;28;20213;-55
2021/10/29 04:54:11;;;;;;;36.75;30.80;;;;;21.40;99878.00;;;;2078463;28;20248;-53
2021/10/29 04:55:11;;;;;;;39.30;30.70;;;;;21.40;99874.00;;;;2078627;28;20213;-54
2021/10/29 04:56:11;;;;;;;41.17;32.90;;;;;21.40;99870.00;;;;2078883;28;20589;-54
2021/10/29 04:57:12;;;;;;;40.70;34.30;;;;;21.40;99871.00;;;;2078805;28;20292;-53
2021/10/29 04:58:13;;;;;;;45.33;38.10;;;;;21.40;99868.00;;;;2078925;28;20292;-54
2021/10/29 04:59:15;;;;;;;45.73;38.87;;;;;21.40;99870.00;;;;2069599;28;20210;-54
2021/10/29 05:00:16;;;;;;;54.72;43.10;;;;;21.40;99874.00;;;;2075538;28;20275;-55
2021/10/29 05:01:16;;;;;;;48.80;42.43;;;;;21.40;99867.00;;;;2078533;28;20270;-53
2021/10/29 05:02:16;;;;;;;61.03;48.17;;;;;21.40;99865.00;;;;2072399;28;20294;-54
2021/10/29 05:03:17;;;;;;;61.03;50.03;;;;;21.40;99870.00;;;;2076776;28;20312;-53
2021/10/29 05:04:19;;;;;;;66.23;52.37;;;;;21.40;99865.00;;;;2072362;28;20220;-52
2021/10/29 05:05:19;;;;;;;64.18;50.42;;;;;21.40;99862.00;;;;2070103;28;20226;-54
2021/10/29 05:06:19;;;;;;;63.20;50.03;;;;;21.40;99860.00;;;;2078512;28;20900;-54